sensor_id;sensor_type;location;lat;lon;timestamp;P1;durP1;ratioP1;P2;durP2;ratioP2
76115;SDS011;64847;45.778;12.802;2023-03-01T00:00:54;4.87;;;4.47;;
76115;SDS011;64847;45.778;12.802;2023-03-01T00:03:19;4.50;;;4.10;;
76115;SDS011;64847;45.778;12.802;2023-03-01T00:05:45;5.10;;;4.60;;
76115;SDS011;64847;45.778;12.802;2023-03-01T00:08:11;4.70;;;4.30;;
76115;SDS011;64847;45.778;12.802;2023-03-01T00:10:36;4.50;;;4.07;;
76115;SDS011;64847;45.778;12.802;2023-03-01T00:13:02;4.20;;;3.80;;
76115;SDS011;64847;45.778;12.802;2023-03-01T00:15:30;4.47;;;4.07;;
76115;SDS011;64847;45.778;12.802;2023-03-01T00:17:56;5.33;;;4.73;;
76115;SDS011;64847;45.778;12.802;2023-03-01T00:20:22;5.03;;;4.53;;
76115;SDS011;64847;45.778;12.802;2023-03-01T00:22:47;4.30;;;3.90;;
76115;SDS011;64847;45.778;12.802;2023-03-01T00:25:12;5.13;;;4.30;;
76115;SDS011;64847;45.778;12.802;2023-03-01T00:27:38;5.70;;;4.83;;
76115;SDS011;64847;45.778;12.802;2023-03-01T00:30:03;4.83;;;4.33;;
76115;SDS011;64847;45.778;12.802;2023-03-01T00:32:30;4.90;;;4.40;;
76115;SDS011;64847;45.778;12.802;2023-03-01T00:34:55;4.63;;;4.23;;
76115;SDS011;64847;45.778;12.802;2023-03-01T00:37:21;4.27;;;3.87;;
76115;SDS011;64847;45.778;12.802;2023-03-01T00:39:47;5.17;;;4.63;;
76115;SDS011;64847;45.778;12.802;2023-03-01T00:42:13;5.10;;;4.60;;
76115;SDS011;64847;45.778;12.802;2023-03-01T00:44:38;5.47;;;4.33;;
76115;SDS011;64847;45.778;12.802;2023-03-01T00:47:04;4.30;;;3.80;;
76115;SDS011;64847;45.778;12.802;2023-03-01T00:49:29;4.87;;;4.47;;
76115;SDS011;64847;45.778;12.802;2023-03-01T00:51:55;4.90;;;4.43;;
76115;SDS011;64847;45.778;12.802;2023-03-01T00:54:20;4.53;;;4.13;;
76115;SDS011;64847;45.778;12.802;2023-03-01T00:56:45;4.90;;;4.50;;
76115;SDS011;64847;45.778;12.802;2023-03-01T00:59:11;4.67;;;4.23;;
76115;SDS011;64847;45.778;12.802;2023-03-01T01:01:36;4.80;;;4.40;;
76115;SDS011;64847;45.778;12.802;2023-03-01T01:04:03;4.93;;;4.53;;
76115;SDS011;64847;45.778;12.802;2023-03-01T01:06:31;5.30;;;4.80;;
76115;SDS011;64847;45.778;12.802;2023-03-01T01:08:59;5.43;;;4.93;;
76115;SDS011;64847;45.778;12.802;2023-03-01T01:11:25;4.80;;;4.40;;
76115;SDS011;64847;45.778;12.802;2023-03-01T01:13:52;4.93;;;4.53;;
76115;SDS011;64847;45.778;12.802;2023-03-01T01:16:18;5.43;;;4.93;;
76115;SDS011;64847;45.778;12.802;2023-03-01T01:18:45;5.33;;;4.83;;
76115;SDS011;64847;45.778;12.802;2023-03-01T01:21:11;4.83;;;4.20;;
76115;SDS011;64847;45.778;12.802;2023-03-01T01:23:39;5.07;;;4.57;;
76115;SDS011;64847;45.778;12.802;2023-03-01T01:26:07;4.87;;;4.47;;
76115;SDS011;64847;45.778;12.802;2023-03-01T01:28:34;5.70;;;4.70;;
76115;SDS011;64847;45.778;12.802;2023-03-01T01:31:00;5.50;;;5.00;;
76115;SDS011;64847;45.778;12.802;2023-03-01T01:33:25;5.43;;;4.93;;
76115;SDS011;64847;45.778;12.802;2023-03-01T01:35:51;4.60;;;4.20;;
76115;SDS011;64847;45.778;12.802;2023-03-01T01:38:17;4.83;;;4.30;;
76115;SDS011;64847;45.778;12.802;2023-03-01T01:40:43;5.20;;;4.70;;
76115;SDS011;64847;45.778;12.802;2023-03-01T01:43:20;4.90;;;4.50;;
76115;SDS011;64847;45.778;12.802;2023-03-01T01:46:21;5.00;;;4.50;;
76115;SDS011;64847;45.778;12.802;2023-03-01T01:48:59;5.03;;;4.60;;
76115;SDS011;64847;45.778;12.802;2023-03-01T01:51:31;6.10;;;5.40;;
76115;SDS011;64847;45.778;12.802;2023-03-01T01:54:03;4.53;;;4.07;;
76115;SDS011;64847;45.778;12.802;2023-03-01T01:56:32;4.70;;;4.30;;
76115;SDS011;64847;45.778;12.802;2023-03-01T01:58:57;6.10;;;4.63;;
76115;SDS011;64847;45.778;12.802;2023-03-01T02:01:23;5.33;;;4.80;;
76115;SDS011;64847;45.778;12.802;2023-03-01T02:03:48;4.83;;;4.43;;
76115;SDS011;64847;45.778;12.802;2023-03-01T02:06:19;4.60;;;4.20;;
76115;SDS011;64847;45.778;12.802;2023-03-01T02:09:01;6.13;;;4.90;;
76115;SDS011;64847;45.778;12.802;2023-03-01T02:11:29;4.70;;;4.27;;
76115;SDS011;64847;45.778;12.802;2023-03-01T02:13:55;5.00;;;4.50;;
76115;SDS011;64847;45.778;12.802;2023-03-01T02:16:21;5.40;;;4.67;;
76115;SDS011;64847;45.778;12.802;2023-03-01T02:18:46;4.60;;;4.20;;
76115;SDS011;64847;45.778;12.802;2023-03-01T02:23:40;4.90;;;4.50;;
76115;SDS011;64847;45.778;12.802;2023-03-01T02:28:42;4.93;;;4.53;;
76115;SDS011;64847;45.778;12.802;2023-03-01T02:31:09;7.33;;;4.90;;
76115;SDS011;64847;45.778;12.802;2023-03-01T02:33:54;5.87;;;5.00;;
76115;SDS011;64847;45.778;12.802;2023-03-01T02:36:25;4.80;;;4.40;;
76115;SDS011;64847;45.778;12.802;2023-03-01T02:38:53;5.30;;;4.80;;
76115;SDS011;64847;45.778;12.802;2023-03-01T02:41:21;5.27;;;4.77;;
76115;SDS011;64847;45.778;12.802;2023-03-01T02:43:47;6.27;;;4.90;;
76115;SDS011;64847;45.778;12.802;2023-03-01T02:46:22;5.67;;;5.00;;
76115;SDS011;64847;45.778;12.802;2023-03-01T02:48:50;5.50;;;4.50;;
76115;SDS011;64847;45.778;12.802;2023-03-01T02:56:34;4.40;;;4.10;;
76115;SDS011;64847;45.778;12.802;2023-03-01T02:59:00;4.50;;;4.10;;
76115;SDS011;64847;45.778;12.802;2023-03-01T03:01:27;5.03;;;4.53;;
76115;SDS011;64847;45.778;12.802;2023-03-01T03:04:01;5.30;;;4.80;;
76115;SDS011;64847;45.778;12.802;2023-03-01T03:06:30;4.67;;;4.27;;
76115;SDS011;64847;45.778;12.802;2023-03-01T03:08:56;5.03;;;4.53;;
76115;SDS011;64847;45.778;12.802;2023-03-01T03:11:21;4.90;;;4.50;;
76115;SDS011;64847;45.778;12.802;2023-03-01T03:13:46;4.37;;;4.03;;
76115;SDS011;64847;45.778;12.802;2023-03-01T03:16:13;4.60;;;4.20;;
76115;SDS011;64847;45.778;12.802;2023-03-01T03:18:39;4.90;;;4.23;;
76115;SDS011;64847;45.778;12.802;2023-03-01T03:21:07;4.93;;;4.53;;
76115;SDS011;64847;45.778;12.802;2023-03-01T03:23:35;5.20;;;4.80;;
76115;SDS011;64847;45.778;12.802;2023-03-01T03:26:01;5.10;;;4.50;;
76115;SDS011;64847;45.778;12.802;2023-03-01T03:28:29;4.80;;;4.27;;
76115;SDS011;64847;45.778;12.802;2023-03-01T03:30:55;5.03;;;4.53;;
76115;SDS011;64847;45.778;12.802;2023-03-01T03:33:21;4.90;;;4.50;;
76115;SDS011;64847;45.778;12.802;2023-03-01T03:35:48;5.17;;;4.70;;
76115;SDS011;64847;45.778;12.802;2023-03-01T03:38:15;4.60;;;4.20;;
76115;SDS011;64847;45.778;12.802;2023-03-01T03:40:51;5.27;;;4.77;;
76115;SDS011;64847;45.778;12.802;2023-03-01T03:43:27;5.07;;;4.57;;
76115;SDS011;64847;45.778;12.802;2023-03-01T03:45:53;4.50;;;4.10;;
76115;SDS011;64847;45.778;12.802;2023-03-01T03:48:19;4.93;;;4.53;;
76115;SDS011;64847;45.778;12.802;2023-03-01T03:50:51;4.67;;;4.23;;
76115;SDS011;64847;45.778;12.802;2023-03-01T03:53:19;5.00;;;4.50;;
76115;SDS011;64847;45.778;12.802;2023-03-01T03:55:45;4.70;;;4.30;;
76115;SDS011;64847;45.778;12.802;2023-03-01T03:58:14;4.70;;;4.30;;
76115;SDS011;64847;45.778;12.802;2023-03-01T04:00:40;4.70;;;4.30;;
76115;SDS011;64847;45.778;12.802;2023-03-01T04:03:07;4.90;;;4.40;;
76115;SDS011;64847;45.778;12.802;2023-03-01T04:05:33;4.93;;;4.50;;
76115;SDS011;64847;45.778;12.802;2023-03-01T04:07:59;4.13;;;3.73;;
76115;SDS011;64847;45.778;12.802;2023-03-01T04:10:33;4.80;;;4.30;;
76115;SDS011;64847;45.778;12.802;2023-03-01T04:13:00;4.80;;;4.40;;
76115;SDS011;64847;45.778;12.802;2023-03-01T04:15:26;4.07;;;3.67;;
76115;SDS011;64847;45.778;12.802;2023-03-01T04:17:52;4.40;;;4.00;;
76115;SDS011;64847;45.778;12.802;2023-03-01T04:20:20;4.43;;;4.03;;
76115;SDS011;64847;45.778;12.802;2023-03-01T04:22:56;4.60;;;4.20;;
76115;SDS011;64847;45.778;12.802;2023-03-01T04:25:22;4.40;;;4.00;;
76115;SDS011;64847;45.778;12.802;2023-03-01T04:27:48;5.30;;;4.10;;
76115;SDS011;64847;45.778;12.802;2023-03-01T04:30:13;4.67;;;4.27;;
76115;SDS011;64847;45.778;12.802;2023-03-01T04:32:39;4.07;;;3.77;;
76115;SDS011;64847;45.778;12.802;2023-03-01T04:35:05;5.83;;;4.87;;
76115;SDS011;64847;45.778;12.802;2023-03-01T04:37:30;5.07;;;4.57;;
76115;SDS011;64847;45.778;12.802;2023-03-01T04:39:55;4.23;;;3.90;;
76115;SDS011;64847;45.778;12.802;2023-03-01T04:42:21;4.67;;;4.10;;
76115;SDS011;64847;45.778;12.802;2023-03-01T04:44:46;4.70;;;4.30;;
76115;SDS011;64847;45.778;12.802;2023-03-01T04:47:12;4.80;;;4.37;;
76115;SDS011;64847;45.778;12.802;2023-03-01T04:49:38;5.03;;;4.63;;
76115;SDS011;64847;45.778;12.802;2023-03-01T04:52:04;4.60;;;4.20;;
76115;SDS011;64847;45.778;12.802;2023-03-01T04:54:30;6.23;;;4.37;;
76115;SDS011;64847;45.778;12.802;2023-03-01T04:56:57;4.90;;;3.67;;
76115;SDS011;64847;45.778;12.802;2023-03-01T04:59:23;4.50;;;4.10;;
76115;SDS011;64847;45.778;12.802;2023-03-01T05:01:48;4.97;;;4.20;;
76115;SDS011;64847;45.778;12.802;2023-03-01T05:04:14;4.47;;;4.07;;
76115;SDS011;64847;45.778;12.802;2023-03-01T05:06:40;4.57;;;4.17;;
76115;SDS011;64847;45.778;12.802;2023-03-01T05:09:05;4.70;;;4.30;;
76115;SDS011;64847;45.778;12.802;2023-03-01T05:11:31;5.13;;;4.70;;
76115;SDS011;64847;45.778;12.802;2023-03-01T05:14:01;5.07;;;4.53;;
76115;SDS011;64847;45.778;12.802;2023-03-01T05:16:27;4.90;;;4.50;;
76115;SDS011;64847;45.778;12.802;2023-03-01T05:18:53;4.70;;;4.30;;
76115;SDS011;64847;45.778;12.802;2023-03-01T05:21:20;5.10;;;4.57;;
76115;SDS011;64847;45.778;12.802;2023-03-01T05:23:46;4.63;;;4.23;;
76115;SDS011;64847;45.778;12.802;2023-03-01T05:26:11;4.60;;;4.13;;
76115;SDS011;64847;45.778;12.802;2023-03-01T05:28:37;5.30;;;4.80;;
76115;SDS011;64847;45.778;12.802;2023-03-01T05:31:03;4.73;;;4.33;;
76115;SDS011;64847;45.778;12.802;2023-03-01T05:33:34;5.37;;;4.87;;
76115;SDS011;64847;45.778;12.802;2023-03-01T05:36:00;5.37;;;4.80;;
76115;SDS011;64847;45.778;12.802;2023-03-01T05:38:26;5.13;;;4.63;;
76115;SDS011;64847;45.778;12.802;2023-03-01T05:40:51;5.33;;;4.67;;
76115;SDS011;64847;45.778;12.802;2023-03-01T05:43:17;5.27;;;4.70;;
76115;SDS011;64847;45.778;12.802;2023-03-01T05:45:43;5.43;;;4.93;;
76115;SDS011;64847;45.778;12.802;2023-03-01T05:48:09;5.40;;;4.90;;
76115;SDS011;64847;45.778;12.802;2023-03-01T05:50:37;5.43;;;4.93;;
76115;SDS011;64847;45.778;12.802;2023-03-01T05:53:06;5.03;;;4.57;;
76115;SDS011;64847;45.778;12.802;2023-03-01T05:55:34;5.20;;;4.70;;
76115;SDS011;64847;45.778;12.802;2023-03-01T05:58:00;4.77;;;4.37;;
76115;SDS011;64847;45.778;12.802;2023-03-01T06:00:27;5.10;;;4.67;;
76115;SDS011;64847;45.778;12.802;2023-03-01T06:02:54;5.80;;;4.80;;
76115;SDS011;64847;45.778;12.802;2023-03-01T06:05:20;4.67;;;4.30;;
76115;SDS011;64847;45.778;12.802;2023-03-01T06:07:46;5.60;;;5.10;;
76115;SDS011;64847;45.778;12.802;2023-03-01T06:10:11;5.10;;;4.60;;
76115;SDS011;64847;45.778;12.802;2023-03-01T06:12:38;6.07;;;4.47;;
76115;SDS011;64847;45.778;12.802;2023-03-01T06:15:04;5.10;;;4.70;;
76115;SDS011;64847;45.778;12.802;2023-03-01T06:17:32;5.03;;;4.63;;
76115;SDS011;64847;45.778;12.802;2023-03-01T06:20:02;5.20;;;4.70;;
76115;SDS011;64847;45.778;12.802;2023-03-01T06:22:32;5.23;;;4.70;;
76115;SDS011;64847;45.778;12.802;2023-03-01T06:24:57;4.77;;;4.37;;
76115;SDS011;64847;45.778;12.802;2023-03-01T06:27:23;4.97;;;4.57;;
76115;SDS011;64847;45.778;12.802;2023-03-01T06:29:48;5.33;;;4.83;;
76115;SDS011;64847;45.778;12.802;2023-03-01T06:32:13;5.37;;;4.87;;
76115;SDS011;64847;45.778;12.802;2023-03-01T06:34:39;5.30;;;4.80;;
76115;SDS011;64847;45.778;12.802;2023-03-01T06:37:04;5.33;;;4.80;;
76115;SDS011;64847;45.778;12.802;2023-03-01T06:39:31;5.57;;;5.07;;
76115;SDS011;64847;45.778;12.802;2023-03-01T06:41:57;5.30;;;4.87;;
76115;SDS011;64847;45.778;12.802;2023-03-01T06:44:22;5.60;;;5.00;;
76115;SDS011;64847;45.778;12.802;2023-03-01T06:46:48;5.47;;;4.97;;
76115;SDS011;64847;45.778;12.802;2023-03-01T06:49:13;5.23;;;4.80;;
76115;SDS011;64847;45.778;12.802;2023-03-01T06:51:41;5.10;;;4.70;;
76115;SDS011;64847;45.778;12.802;2023-03-01T06:54:06;4.67;;;4.27;;
76115;SDS011;64847;45.778;12.802;2023-03-01T06:56:32;4.87;;;4.50;;
76115;SDS011;64847;45.778;12.802;2023-03-01T06:58:57;4.97;;;4.40;;
76115;SDS011;64847;45.778;12.802;2023-03-01T07:01:23;4.50;;;4.10;;
76115;SDS011;64847;45.778;12.802;2023-03-01T07:03:48;5.13;;;4.53;;
76115;SDS011;64847;45.778;12.802;2023-03-01T07:06:15;5.17;;;4.67;;
76115;SDS011;64847;45.778;12.802;2023-03-01T07:08:41;5.17;;;4.67;;
76115;SDS011;64847;45.778;12.802;2023-03-01T07:11:06;4.80;;;4.20;;
76115;SDS011;64847;45.778;12.802;2023-03-01T07:13:32;5.67;;;3.93;;
76115;SDS011;64847;45.778;12.802;2023-03-01T07:15:57;6.53;;;5.00;;
76115;SDS011;64847;45.778;12.802;2023-03-01T07:18:23;6.10;;;4.50;;
76115;SDS011;64847;45.778;12.802;2023-03-01T07:20:48;5.70;;;4.73;;
76115;SDS011;64847;45.778;12.802;2023-03-01T07:23:14;5.43;;;4.93;;
76115;SDS011;64847;45.778;12.802;2023-03-01T07:25:40;5.27;;;4.33;;
76115;SDS011;64847;45.778;12.802;2023-03-01T07:28:05;5.97;;;4.70;;
76115;SDS011;64847;45.778;12.802;2023-03-01T07:30:31;5.63;;;4.60;;
76115;SDS011;64847;45.778;12.802;2023-03-01T07:32:57;4.70;;;4.20;;
76115;SDS011;64847;45.778;12.802;2023-03-01T07:35:26;5.73;;;5.20;;
76115;SDS011;64847;45.778;12.802;2023-03-01T07:37:52;5.80;;;4.90;;
76115;SDS011;64847;45.778;12.802;2023-03-01T07:40:18;4.73;;;4.33;;
76115;SDS011;64847;45.778;12.802;2023-03-01T07:42:44;5.53;;;5.03;;
76115;SDS011;64847;45.778;12.802;2023-03-01T07:45:09;4.90;;;4.50;;
76115;SDS011;64847;45.778;12.802;2023-03-01T07:47:35;6.83;;;5.07;;
76115;SDS011;64847;45.778;12.802;2023-03-01T07:50:00;5.33;;;4.83;;
76115;SDS011;64847;45.778;12.802;2023-03-01T07:52:26;5.17;;;4.77;;
76115;SDS011;64847;45.778;12.802;2023-03-01T07:54:52;5.43;;;4.60;;
76115;SDS011;64847;45.778;12.802;2023-03-01T07:57:17;5.13;;;4.67;;
76115;SDS011;64847;45.778;12.802;2023-03-01T07:59:43;6.30;;;4.60;;
76115;SDS011;64847;45.778;12.802;2023-03-01T08:02:09;6.57;;;4.87;;
76115;SDS011;64847;45.778;12.802;2023-03-01T08:04:35;5.50;;;4.60;;
76115;SDS011;64847;45.778;12.802;2023-03-01T08:07:00;5.40;;;4.30;;
76115;SDS011;64847;45.778;12.802;2023-03-01T08:09:26;5.07;;;4.43;;
76115;SDS011;64847;45.778;12.802;2023-03-01T08:11:51;5.03;;;4.50;;
76115;SDS011;64847;45.778;12.802;2023-03-01T08:14:17;5.17;;;4.70;;
76115;SDS011;64847;45.778;12.802;2023-03-01T08:16:42;5.00;;;4.60;;
76115;SDS011;64847;45.778;12.802;2023-03-01T08:19:09;6.27;;;4.80;;
76115;SDS011;64847;45.778;12.802;2023-03-01T08:21:36;4.80;;;4.40;;
76115;SDS011;64847;45.778;12.802;2023-03-01T08:24:03;5.60;;;4.63;;
76115;SDS011;64847;45.778;12.802;2023-03-01T08:26:29;5.83;;;5.07;;
76115;SDS011;64847;45.778;12.802;2023-03-01T08:28:55;5.30;;;4.80;;
76115;SDS011;64847;45.778;12.802;2023-03-01T08:31:26;4.50;;;4.10;;
76115;SDS011;64847;45.778;12.802;2023-03-01T08:33:59;5.70;;;4.60;;
76115;SDS011;64847;45.778;12.802;2023-03-01T08:36:29;5.07;;;4.67;;
76115;SDS011;64847;45.778;12.802;2023-03-01T08:38:57;7.33;;;5.20;;
76115;SDS011;64847;45.778;12.802;2023-03-01T08:41:22;7.83;;;4.90;;
76115;SDS011;64847;45.778;12.802;2023-03-01T08:43:48;4.90;;;4.40;;
76115;SDS011;64847;45.778;12.802;2023-03-01T08:46:14;7.67;;;4.73;;
76115;SDS011;64847;45.778;12.802;2023-03-01T08:48:39;4.70;;;4.27;;
76115;SDS011;64847;45.778;12.802;2023-03-01T08:51:10;5.57;;;5.00;;
76115;SDS011;64847;45.778;12.802;2023-03-01T08:53:36;4.47;;;4.07;;
76115;SDS011;64847;45.778;12.802;2023-03-01T08:56:02;5.37;;;4.87;;
76115;SDS011;64847;45.778;12.802;2023-03-01T08:58:28;7.17;;;4.57;;
76115;SDS011;64847;45.778;12.802;2023-03-01T09:00:54;5.33;;;4.40;;
76115;SDS011;64847;45.778;12.802;2023-03-01T09:03:21;5.00;;;4.50;;
76115;SDS011;64847;45.778;12.802;2023-03-01T09:05:47;7.83;;;4.83;;
76115;SDS011;64847;45.778;12.802;2023-03-01T09:08:14;4.97;;;4.40;;
76115;SDS011;64847;45.778;12.802;2023-03-01T09:10:39;5.13;;;4.40;;
76115;SDS011;64847;45.778;12.802;2023-03-01T09:13:05;6.30;;;4.10;;
76115;SDS011;64847;45.778;12.802;2023-03-01T09:15:30;10.07;;;4.40;;
76115;SDS011;64847;45.778;12.802;2023-03-01T09:17:59;6.30;;;4.30;;
76115;SDS011;64847;45.778;12.802;2023-03-01T09:20:24;5.00;;;4.10;;
76115;SDS011;64847;45.778;12.802;2023-03-01T09:22:50;5.90;;;4.47;;
76115;SDS011;64847;45.778;12.802;2023-03-01T09:25:15;5.43;;;4.13;;
76115;SDS011;64847;45.778;12.802;2023-03-01T09:27:41;5.33;;;4.40;;
76115;SDS011;64847;45.778;12.802;2023-03-01T09:30:08;5.70;;;4.67;;
76115;SDS011;64847;45.778;12.802;2023-03-01T09:32:34;4.73;;;3.57;;
76115;SDS011;64847;45.778;12.802;2023-03-01T09:34:59;5.07;;;4.27;;
76115;SDS011;64847;45.778;12.802;2023-03-01T09:37:31;8.93;;;4.07;;
76115;SDS011;64847;45.778;12.802;2023-03-01T09:39:57;7.17;;;4.70;;
76115;SDS011;64847;45.778;12.802;2023-03-01T09:42:23;8.70;;;4.53;;
76115;SDS011;64847;45.778;12.802;2023-03-01T09:44:56;9.93;;;4.50;;
76115;SDS011;64847;45.778;12.802;2023-03-01T09:47:27;4.33;;;3.93;;
76115;SDS011;64847;45.778;12.802;2023-03-01T09:49:58;7.00;;;3.90;;
76115;SDS011;64847;45.778;12.802;2023-03-01T09:52:48;5.20;;;4.13;;
76115;SDS011;64847;45.778;12.802;2023-03-01T09:55:43;5.57;;;3.60;;
76115;SDS011;64847;45.778;12.802;2023-03-01T10:00:43;5.63;;;3.60;;
76115;SDS011;64847;45.778;12.802;2023-03-01T10:08:28;8.07;;;3.40;;
76115;SDS011;64847;45.778;12.802;2023-03-01T10:10:56;6.70;;;3.80;;
76115;SDS011;64847;45.778;12.802;2023-03-01T10:13:24;5.90;;;3.67;;
76115;SDS011;64847;45.778;12.802;2023-03-01T10:16:11;7.80;;;3.50;;
76115;SDS011;64847;45.778;12.802;2023-03-01T10:18:39;8.73;;;3.77;;
76115;SDS011;64847;45.778;12.802;2023-03-01T10:21:25;6.20;;;4.07;;
76115;SDS011;64847;45.778;12.802;2023-03-01T10:23:51;7.03;;;4.03;;
76115;SDS011;64847;45.778;12.802;2023-03-01T10:29:06;4.97;;;3.63;;
76115;SDS011;64847;45.778;12.802;2023-03-01T10:31:54;5.40;;;3.40;;
76115;SDS011;64847;45.778;12.802;2023-03-01T10:34:20;3.77;;;3.43;;
76115;SDS011;64847;45.778;12.802;2023-03-01T10:36:52;4.60;;;3.60;;
76115;SDS011;64847;45.778;12.802;2023-03-01T10:39:22;5.63;;;3.67;;
76115;SDS011;64847;45.778;12.802;2023-03-01T10:47:14;6.27;;;3.93;;
76115;SDS011;64847;45.778;12.802;2023-03-01T10:50:03;6.20;;;3.70;;
76115;SDS011;64847;45.778;12.802;2023-03-01T10:52:37;4.57;;;3.60;;
76115;SDS011;64847;45.778;12.802;2023-03-01T10:58:05;3.63;;;3.33;;
76115;SDS011;64847;45.778;12.802;2023-03-01T11:00:47;3.47;;;3.17;;
76115;SDS011;64847;45.778;12.802;2023-03-01T11:03:17;4.63;;;3.30;;
76115;SDS011;64847;45.778;12.802;2023-03-01T11:05:54;5.33;;;4.10;;
76115;SDS011;64847;45.778;12.802;2023-03-01T11:11:06;4.20;;;3.33;;
76115;SDS011;64847;45.778;12.802;2023-03-01T11:13:34;4.20;;;3.30;;
76115;SDS011;64847;45.778;12.802;2023-03-01T11:16:00;3.30;;;3.00;;
76115;SDS011;64847;45.778;12.802;2023-03-01T11:18:27;3.50;;;3.17;;
76115;SDS011;64847;45.778;12.802;2023-03-01T11:20:55;3.53;;;3.23;;
76115;SDS011;64847;45.778;12.802;2023-03-01T11:23:20;5.60;;;3.37;;
76115;SDS011;64847;45.778;12.802;2023-03-01T11:25:56;6.37;;;3.73;;
76115;SDS011;64847;45.778;12.802;2023-03-01T11:28:24;5.63;;;3.40;;
76115;SDS011;64847;45.778;12.802;2023-03-01T11:31:05;3.63;;;3.20;;
76115;SDS011;64847;45.778;12.802;2023-03-01T11:38:45;4.90;;;3.73;;
76115;SDS011;64847;45.778;12.802;2023-03-01T11:41:18;5.03;;;3.20;;
76115;SDS011;64847;45.778;12.802;2023-03-01T11:56:55;7.70;;;3.70;;
76115;SDS011;64847;45.778;12.802;2023-03-01T12:02:37;4.47;;;3.37;;
76115;SDS011;64847;45.778;12.802;2023-03-01T12:08:23;3.80;;;3.40;;
76115;SDS011;64847;45.778;12.802;2023-03-01T12:11:02;3.60;;;3.30;;
76115;SDS011;64847;45.778;12.802;2023-03-01T12:47:11;4.10;;;2.90;;
76115;SDS011;64847;45.778;12.802;2023-03-01T12:49:49;3.37;;;2.93;;
76115;SDS011;64847;45.778;12.802;2023-03-01T12:52:24;3.30;;;2.87;;
76115;SDS011;64847;45.778;12.802;2023-03-01T12:55:02;4.80;;;3.33;;
76115;SDS011;64847;45.778;12.802;2023-03-01T12:57:36;3.53;;;2.87;;
76115;SDS011;64847;45.778;12.802;2023-03-01T13:05:42;3.77;;;3.17;;
76115;SDS011;64847;45.778;12.802;2023-03-01T13:11:01;3.20;;;2.90;;
76115;SDS011;64847;45.778;12.802;2023-03-01T13:13:29;4.03;;;3.40;;
76115;SDS011;64847;45.778;12.802;2023-03-01T13:15:55;3.70;;;3.10;;
76115;SDS011;64847;45.778;12.802;2023-03-01T13:20:53;3.30;;;2.60;;
76115;SDS011;64847;45.778;12.802;2023-03-01T13:26:29;2.57;;;2.33;;
76115;SDS011;64847;45.778;12.802;2023-03-01T13:28:50;2.50;;;2.30;;
76115;SDS011;64847;45.778;12.802;2023-03-01T13:33:50;2.20;;;2.10;;
76115;SDS011;64847;45.778;12.802;2023-03-01T13:39:38;4.47;;;2.27;;
76115;SDS011;64847;45.778;12.802;2023-03-01T13:41:53;2.00;;;1.90;;
76115;SDS011;64847;45.778;12.802;2023-03-01T13:44:23;4.40;;;2.43;;
76115;SDS011;64847;45.778;12.802;2023-03-01T13:47:22;2.70;;;2.50;;
76115;SDS011;64847;45.778;12.802;2023-03-01T13:49:47;2.70;;;2.50;;
76115;SDS011;64847;45.778;12.802;2023-03-01T13:57:38;2.60;;;2.40;;
76115;SDS011;64847;45.778;12.802;2023-03-01T14:00:07;2.67;;;2.47;;
76115;SDS011;64847;45.778;12.802;2023-03-01T14:02:59;2.50;;;2.30;;
76115;SDS011;64847;45.778;12.802;2023-03-01T14:05:25;2.20;;;2.00;;
76115;SDS011;64847;45.778;12.802;2023-03-01T14:07:51;2.10;;;2.00;;
76115;SDS011;64847;45.778;12.802;2023-03-01T14:10:16;2.17;;;2.00;;
76115;SDS011;64847;45.778;12.802;2023-03-01T14:19:01;2.33;;;2.13;;
76115;SDS011;64847;45.778;12.802;2023-03-01T14:21:29;2.40;;;2.30;;
76115;SDS011;64847;45.778;12.802;2023-03-01T14:23:55;2.10;;;2.00;;
76115;SDS011;64847;45.778;12.802;2023-03-01T14:26:23;2.37;;;2.17;;
76115;SDS011;64847;45.778;12.802;2023-03-01T14:28:49;3.17;;;2.20;;
76115;SDS011;64847;45.778;12.802;2023-03-01T14:34:18;1.90;;;1.80;;
76115;SDS011;64847;45.778;12.802;2023-03-01T14:36:45;2.53;;;2.20;;
76115;SDS011;64847;45.778;12.802;2023-03-01T14:39:23;2.30;;;2.10;;
76115;SDS011;64847;45.778;12.802;2023-03-01T14:41:50;2.33;;;2.13;;
76115;SDS011;64847;45.778;12.802;2023-03-01T14:44:18;2.10;;;2.00;;
76115;SDS011;64847;45.778;12.802;2023-03-01T14:46:51;2.73;;;2.53;;
76115;SDS011;64847;45.778;12.802;2023-03-01T14:49:24;3.37;;;2.40;;
76115;SDS011;64847;45.778;12.802;2023-03-01T14:52:05;3.27;;;2.17;;
76115;SDS011;64847;45.778;12.802;2023-03-01T14:57:13;2.37;;;2.27;;
76115;SDS011;64847;45.778;12.802;2023-03-01T14:59:41;2.13;;;2.03;;
76115;SDS011;64847;45.778;12.802;2023-03-01T15:02:13;2.43;;;2.23;;
76115;SDS011;64847;45.778;12.802;2023-03-01T15:04:49;2.40;;;2.20;;
76115;SDS011;64847;45.778;12.802;2023-03-01T15:07:16;2.47;;;2.13;;
76115;SDS011;64847;45.778;12.802;2023-03-01T15:09:42;3.53;;;2.30;;
76115;SDS011;64847;45.778;12.802;2023-03-01T15:14:52;2.37;;;2.17;;
76115;SDS011;64847;45.778;12.802;2023-03-01T15:17:32;2.53;;;2.23;;
76115;SDS011;64847;45.778;12.802;2023-03-01T15:19:59;2.00;;;1.90;;
76115;SDS011;64847;45.778;12.802;2023-03-01T15:22:26;2.33;;;2.13;;
76115;SDS011;64847;45.778;12.802;2023-03-01T15:24:51;2.23;;;2.10;;
76115;SDS011;64847;45.778;12.802;2023-03-01T15:27:18;3.33;;;2.50;;
76115;SDS011;64847;45.778;12.802;2023-03-01T15:29:59;2.10;;;2.00;;
76115;SDS011;64847;45.778;12.802;2023-03-01T15:32:28;2.47;;;2.27;;
76115;SDS011;64847;45.778;12.802;2023-03-01T15:34:55;2.57;;;2.30;;
76115;SDS011;64847;45.778;12.802;2023-03-01T15:37:43;2.47;;;2.27;;
76115;SDS011;64847;45.778;12.802;2023-03-01T15:40:28;2.30;;;2.20;;
76115;SDS011;64847;45.778;12.802;2023-03-01T15:43:01;2.50;;;2.40;;
76115;SDS011;64847;45.778;12.802;2023-03-01T15:45:29;2.60;;;2.40;;
76115;SDS011;64847;45.778;12.802;2023-03-01T15:47:56;3.37;;;2.50;;
76115;SDS011;64847;45.778;12.802;2023-03-01T15:50:35;3.00;;;2.70;;
76115;SDS011;64847;45.778;12.802;2023-03-01T15:53:05;3.30;;;2.73;;
76115;SDS011;64847;45.778;12.802;2023-03-01T15:55:32;2.50;;;2.40;;
76115;SDS011;64847;45.778;12.802;2023-03-01T15:58:20;2.40;;;2.30;;
76115;SDS011;64847;45.778;12.802;2023-03-01T16:00:45;2.53;;;2.33;;
76115;SDS011;64847;45.778;12.802;2023-03-01T16:03:13;2.70;;;2.50;;
76115;SDS011;64847;45.778;12.802;2023-03-01T16:05:46;2.50;;;2.30;;
76115;SDS011;64847;45.778;12.802;2023-03-01T16:08:12;2.83;;;2.27;;
76115;SDS011;64847;45.778;12.802;2023-03-01T16:10:38;2.30;;;2.20;;
76115;SDS011;64847;45.778;12.802;2023-03-01T16:13:04;2.23;;;2.13;;
76115;SDS011;64847;45.778;12.802;2023-03-01T16:15:30;3.20;;;2.47;;
76115;SDS011;64847;45.778;12.802;2023-03-01T16:18:00;2.37;;;2.27;;
76115;SDS011;64847;45.778;12.802;2023-03-01T16:20:26;2.70;;;2.50;;
76115;SDS011;64847;45.778;12.802;2023-03-01T16:22:52;2.63;;;2.53;;
76115;SDS011;64847;45.778;12.802;2023-03-01T16:25:18;2.83;;;2.63;;
76115;SDS011;64847;45.778;12.802;2023-03-01T16:27:45;3.67;;;2.80;;
76115;SDS011;64847;45.778;12.802;2023-03-01T16:30:12;2.40;;;2.30;;
76115;SDS011;64847;45.778;12.802;2023-03-01T16:32:39;2.80;;;2.60;;
76115;SDS011;64847;45.778;12.802;2023-03-01T16:35:05;3.00;;;2.80;;
76115;SDS011;64847;45.778;12.802;2023-03-01T16:37:32;2.90;;;2.70;;
76115;SDS011;64847;45.778;12.802;2023-03-01T16:39:58;2.90;;;2.70;;
76115;SDS011;64847;45.778;12.802;2023-03-01T16:42:24;3.03;;;2.83;;
76115;SDS011;64847;45.778;12.802;2023-03-01T16:44:54;3.10;;;2.87;;
76115;SDS011;64847;45.778;12.802;2023-03-01T16:47:20;3.00;;;2.80;;
76115;SDS011;64847;45.778;12.802;2023-03-01T16:49:45;3.07;;;2.77;;